Terminal Aerodrome Forecast
Issued by NWS

Home | Current Version | Previous Version | Graphics & Text | Print | Product List | Glossary On
Versions: 1 2 3 4 5 6 7 8 9 10 11 12 13 14 15 16 17
807
FTUS41 KCLE 191035 AAB
TAFFDY
TAF AMD
KFDY 191035Z 1911/2006 20004KT 4SM BR SCT250
      TEMPO 1911/1913 3/4SM BR
     FM191300 25004KT P6SM SCT250
     FM191600 26006KT P6SM SCT050
     FM192100 27005KT P6SM VCTS SCT040CB BKN120
     FM200500 VRB03KT 4SM BR SCT120=

USA.gov is the U.S. government's official web portal to all federal, state and local government web resources and services.